Terminal Aerodrome Forecast
Issued by NWS Quad Cities IA IL

Home | Current Version | Previous Version | Text Only | Print | Product List | Glossary On
Versions: 1 2 3 4 5 6 7 8 9 10 11 12 13 14 15 16 17 18
000
FTUS43 KDVN 101903 AAA
TAFMLI
TAF AMD
KMLI 101903Z 1019/1118 19006KT 5SM -SN BKN035 OVC045
     FM102100 14012KT 4SM -SN BR OVC025
     FM110100 12009KT 2SM -SN BR OVC020
     FM111200 14011KT 3/4SM -SN BR OVC012=

USA.gov is the U.S. government's official web portal to all federal, state and local government web resources and services.